Main page
METAR-TAF:

METAR-TAF

Airports :

Yasuj, Iran

Yasuj Airport

latitude: 30-41-49N, longitude: 051-33E, elevation: 1825 m

Current weather observation

The report was made 30 minutes ago, at 07:00 UTC
Wind 4 kt from the East/Northeast
Temperature 13°C
Humidity 82%
Pressure 1020 hPa
Visibility: 3000 m
Scattered clouds at a height of 3000 ft, Cumulonimbus.
Scattered clouds at a height of 3500 ft
Overcast at a height of 7000 ft
rain

METAR: OISY 230700Z 07004KT 3000 RA SCT030CB SCT035 OVC070 13/10 Q1020

Time: 12:00 (07:30 UTC)


TAF: missing

Weather observations and forecasts of more than 4000 airports (METAR and TAF reports).

The available stations are represented by yellow and red dots on the map.

Hover mouse over dot to see the name of the station.

Then click to see weather observations and forecasts.

To change the map : click on the green buttons with a black cross to zoom in, on the green button with a dash to zoom out, or on the green arrows for adjacent maps.


METAR-TAF: